createdAt,value
2023-01-03T00:01:32.429Z,59.18
2023-01-03T00:04:01.734Z,59.22
2023-01-03T00:06:33.911Z,59.13
2023-01-03T00:09:04.772Z,59.28
2023-01-03T00:11:52.496Z,59.33
2023-01-03T00:14:24.822Z,59.36
2023-01-03T00:16:54.903Z,59.95
2023-01-03T00:19:24.729Z,59.73
2023-01-03T00:21:54.650Z,59.74
2023-01-03T00:24:23.550Z,59.83
2023-01-03T00:26:52.303Z,59.73
2023-01-03T00:29:20.472Z,59.62
2023-01-03T00:31:49.453Z,59.53
2023-01-03T00:34:18.091Z,59.32
2023-01-03T00:36:46.477Z,59.39
2023-01-03T00:39:16.358Z,59.40
2023-01-03T00:41:47.220Z,59.61
2023-01-03T00:44:15.699Z,59.53
2023-01-03T00:46:45.508Z,59.08
2023-01-03T00:49:13.593Z,59.01
2023-01-03T00:51:42.819Z,59.08
2023-01-03T00:54:14.067Z,59.06
2023-01-03T00:56:45.306Z,59.01
2023-01-03T00:59:14.625Z,59.20
2023-01-03T01:01:50.687Z,58.94
2023-01-03T01:04:21.529Z,59.03
2023-01-03T01:06:51.280Z,59.13
2023-01-03T01:09:22.214Z,59.25
2023-01-03T01:11:54.810Z,59.01
2023-01-03T01:14:24.773Z,59.17
2023-01-03T01:16:55.040Z,58.87
2023-01-03T01:19:26.728Z,58.89
2023-01-03T01:21:55.189Z,58.72
2023-01-03T01:24:25.019Z,58.78
2023-01-03T01:26:55.060Z,58.93
2023-01-03T01:29:23.858Z,58.64
2023-01-03T01:31:52.199Z,58.70
2023-01-03T01:34:20.382Z,58.63
2023-01-03T01:36:49.325Z,58.78
2023-01-03T01:39:19.778Z,59.65
2023-01-03T01:42:06.879Z,59.36
2023-01-03T01:44:55.373Z,58.82
2023-01-03T01:47:39.357Z,59.43
2023-01-03T01:50:25.619Z,59.24
2023-01-03T01:52:59.033Z,59.36
2023-01-03T01:55:32.640Z,59.11
2023-01-03T01:58:02.440Z,58.52
2023-01-03T02:00:32.178Z,58.67
2023-01-03T02:03:01.153Z,58.62
2023-01-03T02:05:31.487Z,58.97
2023-01-03T02:08:00.300Z,58.82
2023-01-03T02:10:41.660Z,58.61
2023-01-03T02:13:18.443Z,58.98
2023-01-03T02:16:19.998Z,59.23
2023-01-03T02:18:56.405Z,59.41
2023-01-03T02:21:51.158Z,58.78
2023-01-03T02:24:44.591Z,59.43
2023-01-03T02:27:33.232Z,59.39
2023-01-03T02:30:34.338Z,59.39
2023-01-03T02:33:11.367Z,59.35
2023-01-03T02:35:50.233Z,58.87
2023-01-03T02:38:24.881Z,58.66
2023-01-03T02:41:00.119Z,58.63
2023-01-03T02:43:33.327Z,58.73
2023-01-03T02:46:10.731Z,58.61
2023-01-03T02:48:47.013Z,58.38
2023-01-03T02:51:20.180Z,58.67
2023-01-03T02:53:50.977Z,58.42
2023-01-03T02:56:26.281Z,58.00
2023-01-03T02:58:59.769Z,57.96
2023-01-03T03:01:31.686Z,57.89
2023-01-03T03:04:02.331Z,57.92
2023-01-03T03:06:37.394Z,57.90
2023-01-03T03:09:05.737Z,58.07
2023-01-03T03:11:56.576Z,58.05
2023-01-03T03:14:29.873Z,58.03
2023-01-03T03:17:03.879Z,58.21
2023-01-03T03:19:51.398Z,59.14
2023-01-03T03:22:47.020Z,58.96
2023-01-03T03:25:18.079Z,58.94
2023-01-03T03:28:06.427Z,58.95
2023-01-03T03:30:39.422Z,58.75
2023-01-03T03:33:12.467Z,58.69
2023-01-03T03:35:47.449Z,58.53
2023-01-03T03:38:21.321Z,58.57
2023-01-03T03:41:15.478Z,58.88
2023-01-03T03:44:07.602Z,58.71
2023-01-03T03:46:42.819Z,58.36
2023-01-03T03:49:36.339Z,58.20
2023-01-03T03:52:06.354Z,58.08
2023-01-03T03:54:37.672Z,57.88
2023-01-03T03:57:16.478Z,58.04
2023-01-03T03:59:49.952Z,58.08
2023-01-03T04:02:19.998Z,58.19
2023-01-03T04:04:55.081Z,58.27
2023-01-03T04:07:23.459Z,58.42
2023-01-03T04:09:52.268Z,58.22
2023-01-03T04:12:23.434Z,58.38
2023-01-03T04:14:51.861Z,58.65
2023-01-03T04:17:19.858Z,58.55
2023-01-03T04:19:49.284Z,58.24
2023-01-03T04:22:17.807Z,58.15
2023-01-03T04:24:46.218Z,58.06
2023-01-03T04:27:14.479Z,58.14
2023-01-03T04:29:42.703Z,58.13
2023-01-03T04:32:10.945Z,58.44
2023-01-03T04:34:40.891Z,58.18
2023-01-03T04:37:10.733Z,58.15
2023-01-03T04:39:38.884Z,58.40
2023-01-03T04:42:27.746Z,58.06
2023-01-03T04:44:55.117Z,58.22
2023-01-03T04:47:23.344Z,58.17
2023-01-03T04:49:52.057Z,58.05
2023-01-03T04:52:24.244Z,57.96
2023-01-03T04:54:52.271Z,58.02
2023-01-03T04:57:20.639Z,57.86
2023-01-03T04:59:48.778Z,57.91
2023-01-03T05:02:17.139Z,57.65
2023-01-03T05:04:46.124Z,57.52
2023-01-03T05:07:14.352Z,57.72
2023-01-03T05:09:44.580Z,57.44
2023-01-03T05:12:14.985Z,57.39
2023-01-03T05:14:43.393Z,57.34
2023-01-03T05:17:11.893Z,57.37
2023-01-03T05:19:59.503Z,57.38
2023-01-03T05:23:00.629Z,57.41
2023-01-03T05:25:52.841Z,57.29
2023-01-03T05:28:26.669Z,57.40
2023-01-03T05:30:55.120Z,57.46
2023-01-03T05:33:23.351Z,57.40
2023-01-03T05:35:52.103Z,57.29
2023-01-03T05:38:20.890Z,57.33
2023-01-03T05:40:54.563Z,57.30
2023-01-03T05:43:22.894Z,57.28
2023-01-03T05:45:51.975Z,57.13
2023-01-03T05:48:20.936Z,57.14
2023-01-03T05:50:53.700Z,57.18
2023-01-03T05:53:21.887Z,57.35
2023-01-03T05:55:51.712Z,57.34
2023-01-03T05:58:20.187Z,57.52
2023-01-03T06:00:48.631Z,57.72
2023-01-03T06:03:17.068Z,57.82
2023-01-03T06:05:50.057Z,57.59
2023-01-03T06:08:18.868Z,57.83
2023-01-03T06:10:46.876Z,58.12
2023-01-03T06:13:16.457Z,57.93
2023-01-03T06:16:04.722Z,58.15
2023-01-03T06:18:31.748Z,57.63
2023-01-03T06:21:00.122Z,57.56
2023-01-03T06:23:28.501Z,57.72
2023-01-03T06:25:56.665Z,57.82
2023-01-03T06:28:26.585Z,58.00
2023-01-03T06:30:55.442Z,58.15
2023-01-03T06:33:23.551Z,58.04
2023-01-03T06:35:54.198Z,58.34
2023-01-03T06:38:22.357Z,58.42
2023-01-03T06:40:50.864Z,58.45
2023-01-03T06:43:19.067Z,59.94
2023-01-03T06:46:06.344Z,59.25
2023-01-03T06:48:52.295Z,58.97
2023-01-03T06:51:40.443Z,58.34
2023-01-03T06:54:11.487Z,57.95
2023-01-03T06:56:39.598Z,57.68
2023-01-03T06:59:07.644Z,57.25
2023-01-03T07:01:37.621Z,57.14
2023-01-03T07:04:06.174Z,57.11
2023-01-03T07:06:34.323Z,57.11
2023-01-03T07:09:02.833Z,57.24
2023-01-03T07:11:30.931Z,57.17
2023-01-03T07:13:58.502Z,57.08
2023-01-03T07:16:28.323Z,56.96
2023-01-03T07:18:58.009Z,56.98
2023-01-03T07:21:29.185Z,56.91
2023-01-03T07:23:58.501Z,56.92
2023-01-03T07:26:26.754Z,57.01
2023-01-03T07:28:55.089Z,56.82
2023-01-03T07:31:23.112Z,56.79
2023-01-03T07:33:53.066Z,56.76
2023-01-03T07:36:22.790Z,56.93
2023-01-03T07:38:50.794Z,57.03
2023-01-03T07:41:19.282Z,57.28
2023-01-03T07:43:48.821Z,57.37
2023-01-03T07:46:19.855Z,57.71
2023-01-03T07:48:50.491Z,57.56
2023-01-03T07:51:22.689Z,57.44
2023-01-03T07:53:52.458Z,57.61
2023-01-03T07:56:25.887Z,57.82
2023-01-03T07:58:54.534Z,57.78
2023-01-03T08:01:24.476Z,57.98
2023-01-03T08:03:56.931Z,57.99
2023-01-03T08:06:31.071Z,57.93
2023-01-03T08:09:18.018Z,57.94
2023-01-03T08:12:04.079Z,57.81
2023-01-03T08:14:32.652Z,57.83
2023-01-03T08:17:00.699Z,58.02
2023-01-03T08:19:28.939Z,57.93
2023-01-03T08:22:01.725Z,57.97
2023-01-03T08:24:42.078Z,58.19
2023-01-03T08:27:15.239Z,58.57
2023-01-03T08:29:44.118Z,58.41
2023-01-03T08:35:14.143Z,58.21
2023-01-03T08:37:56.125Z,58.24
2023-01-03T08:40:26.924Z,58.64
2023-01-03T08:42:56.142Z,58.74
2023-01-03T08:45:31.895Z,58.37
2023-01-03T08:48:02.870Z,58.45
2023-01-03T08:50:32.315Z,58.12
2023-01-03T08:53:01.983Z,58.33
2023-01-03T08:55:29.965Z,58.32
2023-01-03T08:57:59.803Z,58.43
2023-01-03T09:00:29.294Z,58.42
2023-01-03T09:03:00.809Z,58.44
2023-01-03T09:05:30.271Z,58.29
2023-01-03T09:07:58.894Z,58.41
2023-01-03T09:10:28.176Z,59.05
2023-01-03T09:12:56.564Z,58.33
2023-01-03T09:15:24.809Z,58.34
2023-01-03T09:17:52.778Z,58.62
2023-01-03T09:20:20.996Z,58.92
2023-01-03T09:22:49.018Z,59.26
2023-01-03T09:25:17.392Z,59.05
2023-01-03T09:27:48.508Z,58.94
2023-01-03T09:30:17.993Z,59.24
2023-01-03T09:32:46.589Z,58.61
2023-01-03T09:35:14.658Z,58.68
2023-01-03T09:37:48.500Z,58.36
2023-01-03T09:40:17.696Z,58.16
2023-01-03T09:43:13.685Z,58.25
2023-01-03T09:45:44.312Z,58.19
2023-01-03T09:48:17.107Z,58.24
2023-01-03T09:53:58.433Z,58.05
2023-01-03T09:56:44.458Z,58.14
2023-01-03T09:59:33.832Z,58.10
2023-01-03T10:02:44.632Z,58.00
2023-01-03T10:05:31.798Z,57.81
2023-01-03T10:08:13.792Z,57.56
2023-01-03T10:10:52.449Z,57.46
2023-01-03T10:13:32.708Z,57.39
2023-01-03T10:16:09.552Z,57.42
2023-01-03T10:18:53.866Z,57.38
2023-01-03T10:21:32.490Z,56.92
2023-01-03T10:24:00.769Z,56.49
2023-01-03T10:26:34.237Z,56.40
2023-01-03T10:29:02.637Z,56.04
2023-01-03T10:31:48.120Z,56.48
2023-01-03T10:34:16.097Z,55.18
2023-01-03T10:36:48.012Z,55.84
2023-01-03T10:39:30.393Z,55.90
2023-01-03T10:42:00.482Z,54.46
2023-01-03T10:44:30.247Z,55.57
2023-01-03T10:47:09.864Z,55.17
2023-01-03T10:49:38.047Z,55.41
2023-01-03T10:52:17.737Z,55.60
2023-01-03T10:54:52.839Z,54.48
2023-01-03T10:57:37.275Z,54.28
2023-01-03T11:00:23.105Z,53.95
2023-01-03T11:02:53.410Z,53.48
2023-01-03T11:05:23.881Z,53.91
2023-01-03T11:07:56.348Z,54.87
2023-01-03T11:10:27.332Z,54.07
2023-01-03T11:12:55.604Z,54.39
2023-01-03T11:15:39.106Z,55.08
2023-01-03T11:18:20.640Z,54.92
2023-01-03T11:20:53.430Z,53.65
2023-01-03T11:23:28.044Z,54.16
2023-01-03T11:26:07.088Z,54.51
2023-01-03T11:28:56.225Z,54.79
2023-01-03T11:31:39.135Z,53.59
2023-01-03T11:34:25.469Z,53.58
2023-01-03T11:37:02.370Z,54.13
2023-01-03T11:39:50.178Z,54.06
2023-01-03T11:42:33.341Z,53.50
2023-01-03T11:45:26.562Z,54.39
2023-01-03T11:48:32.261Z,53.47
2023-01-03T11:51:14.569Z,53.10
2023-01-03T11:53:56.745Z,53.50
2023-01-03T11:56:30.045Z,52.46
2023-01-03T11:59:31.473Z,52.74
2023-01-03T12:02:48.426Z,52.08
2023-01-03T12:05:40.730Z,50.75
2023-01-03T12:08:32.620Z,51.99
2023-01-03T12:11:07.362Z,51.44
2023-01-03T12:13:43.403Z,52.12
2023-01-03T12:16:17.370Z,52.03
2023-01-03T12:18:54.281Z,52.32
2023-01-03T12:21:35.592Z,52.45
2023-01-03T12:24:23.560Z,51.04
2023-01-03T12:26:56.484Z,51.28
2023-01-03T12:29:30.564Z,52.22
2023-01-03T12:32:05.059Z,51.08
2023-01-03T12:34:38.744Z,51.80
2023-01-03T12:37:15.711Z,51.85
2023-01-03T12:39:55.172Z,50.59
2023-01-03T12:42:36.457Z,51.00
2023-01-03T12:45:32.886Z,50.69
2023-01-03T12:48:13.392Z,50.18
2023-01-03T12:50:46.024Z,51.24
2023-01-03T12:53:21.678Z,51.68
2023-01-03T12:56:06.737Z,51.25
2023-01-03T12:58:43.875Z,51.40
2023-01-03T13:01:17.941Z,52.11
2023-01-03T13:03:50.425Z,52.36
2023-01-03T13:06:23.152Z,52.24
2023-01-03T13:08:57.580Z,51.74
2023-01-03T13:11:34.580Z,52.02
2023-01-03T13:14:06.994Z,52.25
2023-01-03T13:16:46.692Z,51.50
2023-01-03T13:19:53.598Z,51.11
2023-01-03T13:22:45.189Z,51.51
2023-01-03T13:25:41.649Z,52.21
2023-01-03T13:28:36.417Z,51.19
2023-01-03T13:31:45.849Z,51.84
2023-01-03T13:34:31.488Z,51.13
2023-01-03T13:37:18.208Z,52.36
2023-01-03T13:39:58.272Z,51.75
2023-01-03T13:42:31.095Z,52.66
2023-01-03T13:45:35.337Z,52.98
2023-01-03T13:48:18.389Z,51.68
2023-01-03T13:51:19.169Z,51.97
2023-01-03T13:53:57.512Z,52.20
2023-01-03T13:56:26.961Z,52.27
2023-01-03T13:59:01.643Z,53.01
2023-01-03T14:01:41.696Z,53.01
2023-01-03T14:04:31.894Z,52.90
2023-01-03T14:07:44.111Z,52.58
2023-01-03T14:10:32.134Z,52.53
2023-01-03T14:13:34.978Z,52.71
2023-01-03T14:16:17.897Z,52.63
2023-01-03T14:18:50.552Z,52.69
2023-01-03T14:21:26.346Z,53.02
2023-01-03T14:24:01.104Z,52.82
2023-01-03T14:26:32.657Z,53.01
2023-01-03T14:29:00.858Z,52.96
2023-01-03T14:31:29.824Z,52.96
2023-01-03T14:34:00.195Z,52.93
2023-01-03T14:36:30.198Z,52.92
2023-01-03T14:38:59.816Z,52.97
2023-01-03T14:41:30.862Z,53.06
2023-01-03T14:44:00.687Z,53.07
2023-01-03T14:46:29.945Z,53.05
2023-01-03T14:49:03.439Z,53.17
2023-01-03T14:51:36.709Z,53.26
2023-01-03T14:54:06.147Z,53.26
2023-01-03T14:56:35.265Z,53.31
2023-01-03T14:59:10.798Z,53.23
2023-01-03T15:01:39.597Z,53.31
2023-01-03T15:04:08.516Z,53.50
2023-01-03T15:06:38.029Z,53.43
2023-01-03T15:09:22.270Z,53.36
2023-01-03T15:11:59.335Z,53.54
2023-01-03T15:14:29.922Z,53.74
2023-01-03T15:17:07.108Z,53.66
2023-01-03T15:19:37.259Z,53.70
2023-01-03T15:22:15.167Z,53.51
2023-01-03T15:24:46.323Z,53.53
2023-01-03T15:27:42.578Z,53.53
2023-01-03T15:30:22.435Z,53.90
2023-01-03T15:32:54.058Z,53.78
2023-01-03T15:35:24.592Z,53.71
2023-01-03T15:37:57.975Z,53.87
2023-01-03T15:40:26.565Z,53.72
2023-01-03T15:43:12.472Z,53.72
2023-01-03T15:45:42.718Z,53.80
2023-01-03T15:48:17.852Z,53.83
2023-01-03T15:50:49.694Z,53.79
2023-01-03T15:53:25.711Z,54.02
2023-01-03T15:55:58.038Z,54.51
2023-01-03T15:58:27.111Z,54.58
2023-01-03T16:00:55.888Z,54.30
2023-01-03T16:03:26.809Z,54.40
2023-01-03T16:05:54.893Z,54.49
2023-01-03T16:08:29.380Z,54.58
2023-01-03T16:10:59.391Z,54.74
2023-01-03T16:13:30.931Z,54.56
2023-01-03T16:16:00.432Z,54.55
2023-01-03T16:18:38.255Z,54.38
2023-01-03T16:21:07.334Z,54.39
2023-01-03T16:23:37.330Z,54.59
2023-01-03T16:26:05.641Z,54.45
2023-01-03T16:28:33.749Z,54.46
2023-01-03T16:31:04.632Z,54.45
2023-01-03T16:33:35.842Z,54.54
2023-01-03T16:36:05.548Z,54.77
2023-01-03T16:38:34.702Z,54.76
2023-01-03T16:41:04.097Z,55.06
2023-01-03T16:43:32.626Z,55.25
2023-01-03T16:46:00.918Z,55.23
2023-01-03T16:48:38.063Z,55.37
2023-01-03T16:51:06.994Z,55.71
2023-01-03T16:53:39.543Z,55.28
2023-01-03T16:56:12.678Z,55.72
2023-01-03T16:58:40.919Z,55.95
2023-01-03T17:01:09.604Z,55.59
2023-01-03T17:03:41.826Z,56.20
2023-01-03T17:06:23.693Z,56.01
2023-01-03T17:08:52.262Z,56.64
2023-01-03T17:11:22.569Z,56.12
2023-01-03T17:13:51.180Z,55.84
2023-01-03T17:16:22.799Z,55.96
2023-01-03T17:18:53.528Z,55.98
2023-01-03T17:21:25.909Z,56.16
2023-01-03T17:23:56.568Z,56.36
2023-01-03T17:26:26.497Z,56.24
2023-01-03T17:28:56.137Z,55.97
2023-01-03T17:31:26.469Z,55.72
2023-01-03T17:33:55.878Z,56.13
2023-01-03T17:36:26.893Z,55.81
2023-01-03T17:38:59.915Z,55.76
2023-01-03T17:41:29.734Z,55.76
2023-01-03T17:43:58.070Z,55.67
2023-01-03T17:46:45.507Z,56.23
2023-01-03T17:49:26.913Z,55.83
2023-01-03T17:51:57.886Z,56.25
2023-01-03T17:54:28.864Z,56.73
2023-01-03T17:56:59.915Z,56.67
2023-01-03T17:59:29.047Z,56.85
2023-01-03T18:01:57.768Z,56.57
2023-01-03T18:04:44.142Z,56.31
2023-01-03T18:07:20.822Z,56.38
2023-01-03T18:09:51.009Z,56.86
2023-01-03T18:12:22.578Z,56.40
2023-01-03T18:14:51.373Z,56.32
2023-01-03T18:17:28.253Z,56.47
2023-01-03T18:19:56.717Z,56.57
2023-01-03T18:22:25.328Z,56.47
2023-01-03T18:24:54.808Z,56.16
2023-01-03T18:27:26.988Z,56.43
2023-01-03T18:29:54.986Z,56.21
2023-01-03T18:32:27.735Z,56.16
2023-01-03T18:34:56.578Z,56.59
2023-01-03T18:37:31.276Z,56.31
2023-01-03T18:39:59.919Z,56.47
2023-01-03T18:42:47.637Z,56.50
2023-01-03T18:45:17.823Z,56.57
2023-01-03T18:47:46.391Z,56.29
2023-01-03T18:50:20.241Z,56.51
2023-01-03T18:52:50.730Z,56.43
2023-01-03T18:55:21.495Z,56.06
2023-01-03T18:57:52.210Z,56.06
2023-01-03T19:00:22.557Z,56.19
2023-01-03T19:02:51.498Z,56.14
2023-01-03T19:05:20.208Z,55.97
2023-01-03T19:07:52.740Z,55.96
2023-01-03T19:10:23.299Z,56.00
2023-01-03T19:12:54.170Z,55.98
2023-01-03T19:15:25.431Z,55.95
2023-01-03T19:17:53.618Z,56.00
2023-01-03T19:20:26.781Z,55.81
2023-01-03T19:22:56.930Z,56.05
2023-01-03T19:25:29.826Z,56.17
2023-01-03T19:28:02.653Z,56.07
2023-01-03T19:30:37.607Z,56.18
2023-01-03T19:33:07.561Z,56.02
2023-01-03T19:35:35.638Z,56.01
2023-01-03T19:38:03.951Z,55.96
2023-01-03T19:40:34.846Z,56.13
2023-01-03T19:43:04.609Z,56.07
2023-01-03T19:45:36.458Z,56.08
2023-01-03T19:48:15.850Z,56.11
2023-01-03T19:50:44.532Z,56.21
2023-01-03T19:53:13.532Z,56.13
2023-01-03T19:55:43.680Z,56.12
2023-01-03T19:58:18.509Z,56.00
2023-01-03T20:00:48.419Z,56.29
2023-01-03T20:03:26.990Z,56.11
2023-01-03T20:05:55.540Z,56.29
2023-01-03T20:08:24.265Z,56.07
2023-01-03T20:10:53.654Z,56.21
2023-01-03T20:13:25.386Z,56.05
2023-01-03T20:15:58.015Z,56.12
2023-01-03T20:18:28.443Z,56.06
2023-01-03T20:21:00.132Z,56.08
2023-01-03T20:23:32.621Z,56.13
2023-01-03T20:26:01.211Z,55.99
2023-01-03T20:28:31.204Z,56.11
2023-01-03T20:31:00.907Z,56.07
2023-01-03T20:33:29.950Z,56.12
2023-01-03T20:36:12.588Z,56.00
2023-01-03T20:38:44.753Z,55.98
2023-01-03T20:41:14.486Z,56.13
2023-01-03T20:43:44.759Z,56.09
2023-01-03T20:46:17.210Z,56.12
2023-01-03T20:48:49.962Z,56.06
2023-01-03T20:51:17.961Z,56.06
2023-01-03T20:53:52.310Z,56.18
2023-01-03T20:56:22.430Z,56.10
2023-01-03T20:58:52.773Z,56.22
2023-01-03T21:01:20.885Z,56.52
2023-01-03T21:03:49.030Z,56.47
2023-01-03T21:06:19.601Z,56.65
2023-01-03T21:08:57.023Z,56.84
2023-01-03T21:11:27.819Z,57.08
2023-01-03T21:13:58.758Z,56.97
2023-01-03T21:16:33.614Z,56.74
2023-01-03T21:19:04.003Z,56.75
2023-01-03T21:21:33.221Z,56.60
2023-01-03T21:24:02.073Z,56.62
2023-01-03T21:26:30.164Z,56.47
2023-01-03T21:28:59.935Z,56.71
2023-01-03T21:31:28.244Z,56.70
2023-01-03T21:33:56.757Z,56.77
2023-01-03T21:36:27.919Z,56.63
2023-01-03T21:38:56.834Z,56.94
2023-01-03T21:41:26.837Z,56.79
2023-01-03T21:43:56.746Z,56.52
2023-01-03T21:46:27.460Z,56.92
2023-01-03T21:48:56.590Z,57.26
2023-01-03T21:51:39.302Z,56.77
2023-01-03T21:54:08.364Z,57.27
2023-01-03T21:56:45.387Z,57.12
2023-01-03T21:59:14.395Z,56.77
2023-01-03T22:02:02.785Z,56.96
2023-01-03T22:04:31.512Z,56.65
2023-01-03T22:07:00.898Z,57.06
2023-01-03T22:09:47.705Z,57.18
2023-01-03T22:12:16.564Z,57.30
2023-01-03T22:14:45.028Z,57.22
2023-01-03T22:17:15.346Z,57.06
2023-01-03T22:19:43.861Z,57.08
2023-01-03T22:22:12.083Z,57.22
2023-01-03T22:24:40.188Z,57.50
2023-01-03T22:27:08.876Z,57.39
2023-01-03T22:29:37.076Z,57.36
2023-01-03T22:32:05.545Z,57.45
2023-01-03T22:34:35.269Z,57.33
2023-01-03T22:37:03.302Z,57.24
2023-01-03T22:39:31.461Z,57.51
2023-01-03T22:42:00.022Z,57.57
2023-01-03T22:44:28.089Z,57.68
2023-01-03T22:46:56.130Z,57.59
2023-01-03T22:49:24.838Z,58.29
2023-01-03T22:51:54.249Z,58.64
2023-01-03T22:54:22.517Z,58.24
2023-01-03T22:56:51.309Z,58.72
2023-01-03T22:59:19.306Z,58.23
2023-01-03T23:01:47.930Z,58.46
2023-01-03T23:04:19.188Z,58.55
2023-01-03T23:06:47.768Z,58.45
2023-01-03T23:09:17.227Z,58.88
2023-01-03T23:12:02.993Z,59.04
2023-01-03T23:14:32.490Z,59.17
2023-01-03T23:17:22.005Z,59.09
2023-01-03T23:19:50.164Z,59.19
2023-01-03T23:22:18.790Z,59.31
2023-01-03T23:24:48.356Z,59.95
2023-01-03T23:27:16.565Z,59.69
2023-01-03T23:29:45.542Z,59.66
2023-01-03T23:32:13.829Z,59.34
2023-01-03T23:34:41.980Z,58.96
2023-01-03T23:37:10.370Z,59.44
2023-01-03T23:39:38.977Z,59.17
2023-01-03T23:42:08.457Z,59.49
2023-01-03T23:44:36.699Z,59.97
2023-01-03T23:47:11.079Z,60.34
2023-01-03T23:49:39.855Z,60.28
2023-01-03T23:52:08.184Z,59.97
2023-01-03T23:54:36.473Z,60.19
2023-01-03T23:57:05.959Z,60.28
2023-01-03T23:59:35.398Z,60.46
